Time;durP1;ratioP1;P1;durP2;ratioP2;P2;SDS_P1;SDS_P2;PMS_P1;PMS_P2;Temp;Humidity;BMP_temperature;BMP_pressure;BME280_temperature;BME280_humidity;BME280_pressure;Samples;Min_cycle;Max_cycle;Signal;HPM_P1;HPM_P2
2023/08/05 00:00:38;;;;;;;61.37;4.10;;;;;;;24.39;59.94;99236.88;7311339;19;131670;-40
2023/08/05 00:03:04;;;;;;;45.33;3.00;;;;;;;24.40;60.21;99238.56;7315386;19;128868;-41
2023/08/05 00:05:29;;;;;;;98.87;6.13;;;;;;;24.39;59.76;99231.63;7307692;19;128893;-40
2023/08/05 00:07:54;;;;;;;89.30;5.90;;;;;;;24.40;60.23;99233.28;7297697;19;132594;-39
2023/08/05 00:10:20;;;;;;;88.33;5.67;;;;;;;24.41;59.79;99228.88;7294278;19;131368;-40
2023/08/05 00:12:45;;;;;;;79.33;5.43;;;;;;;24.42;60.25;99223.44;7296840;19;129490;-39
2023/08/05 00:15:10;;;;;;;49.77;3.33;;;;;;;24.42;59.81;99225.25;7314876;19;129218;-41
2023/08/05 00:17:36;;;;;;;32.70;2.43;;;;;;;24.42;59.56;99225.25;7314148;19;129775;-40
2023/08/05 00:20:01;;;;;;;32.33;2.53;;;;;;;24.43;59.58;99227.69;7313255;19;129225;-40
2023/08/05 00:22:27;;;;;;;8.50;1.00;;;;;;;24.42;59.47;99233.97;7313401;19;130471;-41
2023/08/05 00:24:52;;;;;;;28.67;2.23;;;;;;;24.42;59.66;99233.97;7313312;19;129455;-40
2023/08/05 00:27:17;;;;;;;22.83;2.03;;;;;;;24.43;59.99;99226.88;7314170;19;130547;-40
2023/08/05 00:29:45;;;;;;;31.57;2.43;;;;;;;24.41;59.95;99223.63;7311540;19;129355;-41
2023/08/05 00:32:11;;;;;;;37.60;2.83;;;;;;;24.39;60.03;99218.50;7312348;19;128987;-41
2023/08/05 00:34:36;;;;;;;23.77;1.77;;;;;;;24.40;60.03;99211.44;7312244;19;128822;-45
2023/08/05 00:37:02;;;;;;;39.03;3.03;;;;;;;24.39;59.95;99221.13;7312960;19;130459;-39
2023/08/05 00:39:27;;;;;;;86.60;5.90;;;;;;;24.40;59.75;99222.78;7298943;19;131165;-40
2023/08/05 00:41:52;;;;;;;104.17;7.00;;;;;;;24.41;59.56;99213.09;7296194;19;130478;-40
2023/08/05 00:44:18;;;;;;;109.13;7.37;;;;;;;24.42;60.01;99215.56;7298052;19;130030;-40
2023/08/05 00:46:43;;;;;;;93.30;6.30;;;;;;;24.42;60.18;99217.34;7298264;19;131845;-40
2023/08/05 00:49:09;;;;;;;61.60;4.13;;;;;;;24.42;59.63;99201.59;7310798;19;131315;-40
2023/08/05 00:51:35;;;;;;;50.83;3.00;;;;;;;24.40;59.59;99207.03;7313323;19;129255;-40
2023/08/05 00:54:00;;;;;;;30.57;2.37;;;;;;;24.42;60.29;99206.84;7310588;19;129599;-39
2023/08/05 00:56:25;;;;;;;38.57;2.67;;;;;;;24.42;60.10;99199.78;7311611;19;130230;-42
2023/08/05 00:58:51;;;;;;;37.93;2.60;;;;;;;24.44;59.98;99197.78;7312797;19;129662;-39
2023/08/05 01:01:16;;;;;;;26.83;2.13;;;;;;;24.44;60.27;99192.53;7311245;19;130138;-39
2023/08/05 01:03:42;;;;;;;29.53;2.27;;;;;;;24.44;60.25;99194.38;7312560;19;130132;-39
2023/08/05 01:06:07;;;;;;;11.57;1.20;;;;;;;24.42;59.50;99202.41;7313459;19;130106;-38
2023/08/05 01:08:34;;;;;;;37.93;2.73;;;;;;;24.36;59.83;99183.88;7311010;19;130730;-42
2023/08/05 01:11:00;;;;;;;51.95;3.60;;;;;;;24.43;59.69;99195.34;7309931;19;129426;-39
2023/08/05 01:13:26;;;;;;;;;;;;;;;24.48;60.51;99192.22;7310313;19;128822;-38
2023/08/05 01:15:51;;;;;;;33.17;2.40;;;;;;;24.34;59.92;99184.06;7312403;19;129432;-40
2023/08/05 01:18:17;;;;;;;39.70;2.85;;;;;;;24.41;59.76;99195.50;7312266;19;129164;-39
2023/08/05 01:20:46;;;;;;;32.28;2.38;;;;;;;24.40;60.21;99191.25;7311591;19;128746;-38
2023/08/05 01:23:34;;;;;;;38.42;2.80;;;;;;;24.43;61.11;99204.06;7312007;19;129008;-38
2023/08/05 01:26:01;;;;;;;33.05;2.50;;;;;;;24.42;59.75;99193.72;7311800;19;129787;-41
2023/08/05 01:28:27;;;;;;;90.65;6.07;;;;;;;24.40;59.90;99191.25;7305372;19;129956;-38
2023/08/05 01:30:55;;;;;;;37.57;2.77;;;;;;;24.40;60.53;99191.25;7307861;19;129197;-38
2023/08/05 01:33:22;;;;;;;34.42;2.50;;;;;;;24.41;60.22;99194.72;7309713;19;130166;-38
2023/08/05 01:35:48;;;;;;;13.35;1.35;;;;;;;24.40;60.28;99201.75;7311077;19;129077;-39
2023/08/05 01:38:14;;;;;;;;;;;;;;;24.45;60.91;99199.47;7310735;19;131237;-42
2023/08/05 01:40:39;;;;;;;39.55;2.78;;;;;;;24.40;60.16;99191.25;7309212;19;128571;-39
2023/08/05 01:43:05;;;;;;;31.83;2.37;;;;;;;24.41;59.67;99192.88;7312158;19;128880;-39
2023/08/05 01:45:30;;;;;;;13.47;1.33;;;;;;;24.41;60.16;99187.63;7313874;19;129544;-38
2023/08/05 01:47:55;;;;;;;34.87;2.40;;;;;;;24.39;59.91;99186.97;7315623;19;130848;-39
2023/08/05 01:50:21;;;;;;;29.60;2.13;;;;;;;24.38;60.43;99190.59;7317213;19;128974;-39
2023/08/05 01:52:46;;;;;;;52.80;3.53;;;;;;;24.37;60.32;99191.59;7315159;19;129292;-39
2023/08/05 01:55:11;;;;;;;33.93;2.40;;;;;;;24.39;60.08;99189.59;7319301;19;130065;-39
2023/08/05 01:57:37;;;;;;;64.97;4.17;;;;;;;24.30;60.38;99185.34;7316697;19;130186;-39
2023/08/05 02:00:03;;;;;;;31.93;2.43;;;;;;;24.30;60.01;99180.09;7317367;19;129579;-43
2023/08/05 02:02:28;;;;;;;16.80;1.40;;;;;;;24.35;60.11;99196.19;7318091;19;129532;-39
2023/08/05 02:04:53;;;;;;;23.70;1.90;;;;;;;24.31;60.12;99192.25;7316820;19;128959;-40
2023/08/05 02:07:18;;;;;;;88.83;5.73;;;;;;;24.39;60.09;99199.31;7311297;19;130192;-42
2023/08/05 02:09:44;;;;;;;34.87;2.50;;;;;;;24.39;59.73;99194.84;7315794;19;129118;-39
2023/08/05 02:12:09;;;;;;;39.07;2.73;;;;;;;24.39;60.36;99196.69;7318279;19;128783;-38
2023/08/05 02:14:35;;;;;;;41.17;2.80;;;;;;;24.38;60.33;99198.47;7318050;19;129572;-42
2023/08/05 02:17:00;;;;;;;22.47;1.80;;;;;;;24.40;60.36;99201.75;7318087;19;130885;-38
2023/08/05 02:19:25;;;;;;;31.63;2.40;;;;;;;24.39;60.07;99197.47;7315299;19;129073;-41
2023/08/05 02:21:51;;;;;;;61.03;4.40;;;;;;;24.39;60.06;99189.59;7317017;19;129198;-39
2023/08/05 02:24:16;;;;;;;32.63;2.50;;;;;;;24.38;59.65;99190.59;7318541;19;129280;-39
2023/08/05 02:26:41;;;;;;;49.70;3.57;;;;;;;24.38;59.93;99193.22;7317386;19;131098;-39
2023/08/05 02:29:07;;;;;;;49.67;3.40;;;;;;;24.39;60.23;99184.34;7317840;19;128934;-38
2023/08/05 02:31:32;;;;;;;94.70;6.23;;;;;;;24.40;60.35;99179.91;7305918;19;130443;-39
2023/08/05 02:33:58;;;;;;;71.90;4.90;;;;;;;24.39;60.03;99184.34;7301119;19;130570;-44
2023/08/05 02:36:24;;;;;;;64.07;4.60;;;;;;;24.41;59.78;99185.00;7298990;19;131421;-42
2023/08/05 02:38:49;;;;;;;25.50;2.10;;;;;;;24.43;60.39;99180.41;7304065;19;130150;-42
2023/08/05 02:41:14;;;;;;;34.17;2.47;;;;;;;24.43;59.73;99174.31;7309311;19;129293;-39
2023/08/05 02:43:40;;;;;;;25.50;1.97;;;;;;;24.44;59.83;99168.88;7317134;19;129411;-42
2023/08/05 02:46:05;;;;;;;68.23;4.73;;;;;;;24.36;59.68;99147.09;7308710;19;129961;-40
2023/08/05 02:48:30;;;;;;;119.80;8.00;;;;;;;24.43;60.01;99167.25;7306637;19;129527;-40
2023/08/05 02:50:56;;;;;;;98.00;6.50;;;;;;;24.38;60.14;99155.59;7298515;19;131194;-41
2023/08/05 02:53:22;;;;;;;92.77;6.17;;;;;;;24.44;59.78;99161.00;7297988;19;131713;-40
2023/08/05 02:55:47;;;;;;;37.07;2.63;;;;;;;24.44;59.62;99158.38;7312098;19;130402;-40
2023/08/05 02:58:18;;;;;;;30.87;2.33;;;;;;;24.48;60.51;99152.81;7314864;19;131424;-40
2023/08/05 03:00:43;;;;;;;33.88;2.38;;;;;;;24.45;60.03;99152.16;7313795;19;129555;-39
2023/08/05 03:03:10;;;;;;;53.10;3.67;;;;;;;24.35;59.71;99141.00;7312706;19;130854;-40
2023/08/05 03:05:36;;;;;;;28.67;2.20;;;;;;;24.44;59.59;99155.75;7314783;19;129465;-40
2023/08/05 03:08:01;;;;;;;37.27;2.50;;;;;;;24.46;59.80;99159.03;7317492;19;128869;-40
2023/08/05 03:10:27;;;;;;;32.40;2.23;;;;;;;24.45;59.62;99162.66;7314028;19;129136;-40
2023/08/05 03:12:52;;;;;;;30.80;2.30;;;;;;;24.44;59.64;99170.72;7315345;19;129217;-40
2023/08/05 03:15:17;;;;;;;34.13;2.37;;;;;;;24.45;60.29;99175.81;7313712;19;129531;-39
2023/08/05 03:17:43;;;;;;;32.77;2.30;;;;;;;24.44;60.00;99178.59;7315642;19;129601;-40
2023/08/05 03:20:25;;;;;;;38.40;2.60;;;;;;;24.36;60.68;99160.22;7313317;19;129159;-40
2023/08/05 03:22:52;;;;;;;31.83;2.20;;;;;;;24.41;60.34;99177.13;7314452;19;131734;-40
2023/08/05 03:25:18;;;;;;;34.75;2.30;;;;;;;24.33;59.80;99177.13;7315314;19;130327;-40
2023/08/05 03:27:43;;;;;;;32.53;2.40;;;;;;;24.39;60.21;99184.34;7316508;19;129486;-40
2023/08/05 03:30:08;;;;;;;31.93;2.50;;;;;;;24.38;60.44;99193.22;7312017;19;128786;-40
2023/08/05 03:32:34;;;;;;;40.33;2.63;;;;;;;24.37;59.92;99196.84;7315470;19;130579;-40
2023/08/05 03:34:59;;;;;;;79.70;5.37;;;;;;;24.30;60.42;99184.53;7311719;19;130364;-41
2023/08/05 03:37:24;;;;;;;65.43;4.57;;;;;;;24.37;60.17;99199.47;7314528;19;129308;-40
2023/08/05 03:39:50;;;;;;;56.80;3.83;;;;;;;24.36;60.55;99197.81;7312657;19;129132;-39
2023/08/05 03:42:15;;;;;;;45.30;2.87;;;;;;;24.34;60.00;99197.19;7316851;19;129217;-40
2023/08/05 03:44:42;;;;;;;64.13;4.27;;;;;;;24.36;60.39;99189.94;7314549;19;129264;-40
2023/08/05 03:47:08;;;;;;;33.13;2.28;;;;;;;24.36;60.07;99182.06;7316488;19;129425;-40
2023/08/05 03:49:33;;;;;;;48.73;3.20;;;;;;;24.34;60.18;99178.78;7314127;19;129123;-40
2023/08/05 03:51:59;;;;;;;34.23;2.33;;;;;;;24.35;59.95;99190.94;7310438;19;131128;-43
2023/08/05 03:54:24;;;;;;;29.97;2.03;;;;;;;24.34;59.90;99189.31;7316032;19;130613;-43
2023/08/05 03:56:51;;;;;;;31.73;2.23;;;;;;;24.35;60.07;99188.31;7314015;19;129432;-41
2023/08/05 03:59:16;;;;;;;39.97;2.53;;;;;;;24.35;59.80;99197.97;7313923;19;129210;-41
2023/08/05 04:01:42;;;;;;;63.17;4.17;;;;;;;24.26;60.31;99191.91;7313351;19;128998;-42
2023/08/05 04:04:07;;;;;;;33.57;2.50;;;;;;;24.35;60.04;99206.69;7315310;19;130472;-43
2023/08/05 04:06:32;;;;;;;46.70;3.57;;;;;;;24.35;60.23;99214.56;7314413;19;128986;-42
2023/08/05 04:08:58;;;;;;;58.17;3.90;;;;;;;24.35;60.81;99222.47;7309619;19;129019;-43
2023/08/05 04:11:24;;;;;;;22.80;1.63;;;;;;;24.34;60.11;99220.84;7311330;19;130134;-43
2023/08/05 04:13:52;;;;;;;29.33;2.10;;;;;;;24.34;60.78;99222.63;7312618;19;129224;-42
2023/08/05 04:16:19;;;;;;;27.92;2.00;;;;;;;24.32;60.40;99221.97;7313787;19;129594;-43
2023/08/05 04:18:48;;;;;;;;;;;;;;;24.38;60.93;99219.50;7313730;19;130358;-40
2023/08/05 04:21:13;;;;;;;65.95;4.53;;;;;;;24.34;60.74;99214.75;7310066;19;130321;-42
2023/08/05 04:23:41;;;;;;;38.67;2.67;;;;;;;24.33;60.44;99220.97;7314141;19;129129;-41
2023/08/05 04:26:06;;;;;;;12.63;1.33;;;;;;;24.33;60.43;99218.34;7311802;19;129099;-41
2023/08/05 04:28:32;;;;;;;43.93;2.93;;;;;;;24.32;60.22;99214.91;7314891;19;129558;-42
2023/08/05 04:30:57;;;;;;;28.07;2.27;;;;;;;24.24;60.35;99199.16;7309580;19;130267;-41
2023/08/05 04:33:25;;;;;;;22.47;1.70;;;;;;;24.31;60.20;99200.13;7313812;19;129578;-43
2023/08/05 04:35:51;;;;;;;71.43;4.90;;;;;;;24.33;60.55;99202.56;7305654;19;130791;-36
2023/08/05 04:38:17;;;;;;;100.83;6.70;;;;;;;24.32;60.55;99198.31;7294152;19;130371;-40
2023/08/05 04:40:42;;;;;;;33.23;2.30;;;;;;;24.32;60.15;99196.53;7309965;19;130639;-43
2023/08/05 04:43:08;;;;;;;36.20;2.53;;;;;;;24.33;60.75;99203.41;7314047;19;129174;-42
2023/08/05 04:45:34;;;;;;;25.47;1.93;;;;;;;24.31;60.46;99202.75;7313163;19;129439;-43
2023/08/05 04:48:00;;;;;;;32.90;2.40;;;;;;;24.33;60.26;99206.03;7313598;19;129382;-43
2023/08/05 04:50:25;;;;;;;22.47;1.83;;;;;;;24.33;60.53;99200.78;7310828;19;130285;-43
2023/08/05 04:52:51;;;;;;;32.17;2.47;;;;;;;24.33;60.22;99206.03;7311401;19;129406;-42
2023/08/05 04:55:16;;;;;;;32.20;2.27;;;;;;;24.33;60.57;99211.28;7312743;19;129301;-42
2023/08/05 04:57:42;;;;;;;31.87;2.07;;;;;;;24.33;60.55;99207.84;7313425;19;129306;-43
2023/08/05 05:00:08;;;;;;;32.13;2.25;;;;;;;24.33;60.89;99208.66;7310600;19;129791;-40
2023/08/05 05:02:34;;;;;;;16.00;1.40;;;;;;;24.32;61.03;99209.66;7313446;19;130693;-39
2023/08/05 05:05:00;;;;;;;27.47;1.90;;;;;;;24.28;60.80;99207.50;7311832;19;128925;-42
2023/08/05 05:07:25;;;;;;;69.83;4.63;;;;;;;24.33;60.21;99208.66;7312705;19;129155;-43
2023/08/05 05:09:50;;;;;;;32.30;2.17;;;;;;;24.31;60.53;99200.13;7307399;19;131520;-42
2023/08/05 05:12:16;;;;;;;27.70;1.90;;;;;;;24.33;60.62;99199.94;7311451;19;130025;-43
2023/08/05 05:14:44;;;;;;;38.57;2.67;;;;;;;24.33;60.20;99200.78;7312281;19;129188;-43
2023/08/05 05:17:09;;;;;;;40.42;2.60;;;;;;;24.33;60.31;99199.94;7312629;19;130392;-39
2023/08/05 05:19:35;;;;;;;35.00;2.10;;;;;;;24.32;60.55;99204.41;7311917;19;129601;-41
2023/08/05 05:22:00;;;;;;;36.73;2.53;;;;;;;24.31;60.81;99200.13;7312029;19;129665;-42
2023/08/05 05:24:26;;;;;;;42.30;2.87;;;;;;;24.33;60.20;99206.03;7310324;19;128939;-42
2023/08/05 05:26:51;;;;;;;39.63;2.67;;;;;;;24.32;60.81;99212.28;7312798;19;129122;-40
2023/08/05 05:29:19;;;;;;;42.53;2.77;;;;;;;24.32;60.22;99209.66;7310312;19;129060;-43
2023/08/05 05:31:45;;;;;;;39.72;2.63;;;;;;;24.32;60.25;99214.91;7312263;19;129353;-40
2023/08/05 05:34:13;;;;;;;34.88;2.25;;;;;;;24.31;60.19;99205.38;7308558;19;132004;-42
2023/08/05 05:36:38;;;;;;;31.57;2.17;;;;;;;24.31;60.90;99202.75;7313225;19;128960;-42
2023/08/05 05:39:04;;;;;;;24.50;1.73;;;;;;;24.32;60.87;99199.16;7310716;19;130411;-42
2023/08/05 05:41:29;;;;;;;32.83;2.13;;;;;;;24.32;60.40;99190.44;7308482;19;129389;-41
2023/08/05 05:43:56;;;;;;;25.73;1.73;;;;;;;24.23;60.75;99184.38;7311611;19;129102;-41
2023/08/05 05:46:21;;;;;;;34.78;2.42;;;;;;;24.32;61.14;99199.16;7312878;19;129416;-40
2023/08/05 05:48:47;;;;;;;49.10;3.23;;;;;;;24.31;60.96;99201.94;7308969;19;130312;-43
2023/08/05 05:51:12;;;;;;;37.20;2.60;;;;;;;24.31;61.07;99210.63;7309395;19;129338;-43
2023/08/05 05:53:37;;;;;;;37.03;2.40;;;;;;;24.31;60.97;99208.00;7308160;19;130072;-42
2023/08/05 05:56:03;;;;;;;22.00;1.57;;;;;;;24.31;60.36;99223.75;7312076;19;128904;-43
2023/08/05 05:58:29;;;;;;;60.63;4.07;;;;;;;24.31;60.18;99218.50;7310338;19;129473;-42
2023/08/05 06:00:55;;;;;;;36.75;2.53;;;;;;;24.31;60.85;99215.88;7309236;19;129559;-41
2023/08/05 06:03:21;;;;;;;97.33;6.50;;;;;;;24.31;60.62;99220.34;7307557;19;129285;-41
2023/08/05 06:05:46;;;;;;;24.83;2.07;;;;;;;24.26;60.80;99205.06;7307934;19;129222;-41
2023/08/05 06:08:11;;;;;;;47.77;3.17;;;;;;;24.32;60.74;99214.09;7310628;19;129553;-43
2023/08/05 06:10:38;;;;;;;46.30;3.07;;;;;;;24.31;60.34;99210.63;7307457;19;129752;-43
2023/08/05 06:13:04;;;;;;;31.48;2.22;;;;;;;24.33;60.92;99215.72;7311231;19;128935;-43
2023/08/05 06:15:30;;;;;;;22.38;1.83;;;;;;;24.32;60.64;99208.84;7310095;19;130507;-43
2023/08/05 06:17:56;;;;;;;28.40;1.98;;;;;;;24.33;60.45;99208.66;7310648;19;129655;-42
2023/08/05 06:20:21;;;;;;;31.73;2.17;;;;;;;24.33;60.65;99194.69;7306238;19;129389;-42
2023/08/05 06:22:46;;;;;;;28.77;2.17;;;;;;;24.31;60.92;99197.50;7310630;19;130263;-43
2023/08/05 06:25:12;;;;;;;18.63;1.57;;;;;;;24.33;60.32;99203.41;7310742;19;128904;-43
2023/08/05 06:27:38;;;;;;;32.80;2.20;;;;;;;24.34;60.62;99193.72;7310591;19;129350;-42
2023/08/05 06:30:04;;;;;;;58.87;3.73;;;;;;;24.33;60.38;99195.53;7308693;19;131114;-42
2023/08/05 06:32:29;;;;;;;81.22;5.50;;;;;;;24.29;61.01;99194.25;7301110;19;130865;-40
2023/08/05 06:34:55;;;;;;;70.70;4.78;;;;;;;24.34;60.81;99197.19;7300576;19;130925;-38
2023/08/05 06:37:21;;;;;;;100.33;6.77;;;;;;;24.32;60.34;99198.31;7303994;19;130298;-43
2023/08/05 06:39:47;;;;;;;34.38;2.35;;;;;;;24.35;60.32;99198.81;7313135;19;129388;-41
2023/08/05 06:42:12;;;;;;;29.00;2.10;;;;;;;24.36;60.22;99192.56;7314559;19;128886;-43
2023/08/05 06:44:38;;;;;;;34.10;2.53;;;;;;;24.38;60.61;99189.75;7317282;19;129359;-40
2023/08/05 06:47:04;;;;;;;34.53;2.23;;;;;;;24.39;60.61;99186.16;7317167;19;130138;-42
2023/08/05 06:49:30;;;;;;;96.82;6.28;;;;;;;24.30;60.05;99174.84;7313309;19;129932;-40
2023/08/05 06:51:55;;;;;;;33.27;2.27;;;;;;;24.41;60.54;99192.09;7315664;19;129983;-41
2023/08/05 06:54:21;;;;;;;30.13;2.17;;;;;;;24.31;60.43;99173.84;7312745;19;129135;-43
2023/08/05 06:56:46;;;;;;;25.87;1.70;;;;;;;24.39;60.17;99200.09;7316261;19;130820;-42
2023/08/05 06:59:12;;;;;;;26.40;1.87;;;;;;;24.38;60.74;99195.84;7316144;19;130339;-41
2023/08/05 07:01:37;;;;;;;31.57;2.03;;;;;;;24.38;60.35;99198.47;7315475;19;129361;-42
2023/08/05 07:04:03;;;;;;;44.60;3.10;;;;;;;24.38;60.20;99198.47;7316032;19;130223;-43
2023/08/05 07:06:28;;;;;;;43.47;2.97;;;;;;;24.37;60.53;99204.72;7316074;19;131309;-42
2023/08/05 07:08:54;;;;;;;23.47;1.80;;;;;;;24.37;59.97;99209.16;7315361;19;129499;-40
2023/08/05 07:11:20;;;;;;;36.60;2.63;;;;;;;24.35;60.44;99205.88;7314350;19;129064;-43
2023/08/05 07:13:45;;;;;;;29.08;2.00;;;;;;;24.35;60.64;99205.88;7314801;19;128991;-43
2023/08/05 07:16:11;;;;;;;44.77;2.87;;;;;;;24.35;60.20;99204.06;7313404;19;130518;-41
2023/08/05 07:18:36;;;;;;;48.07;3.27;;;;;;;24.35;60.54;99209.31;7314970;19;129604;-40
2023/08/05 07:21:01;;;;;;;16.97;1.40;;;;;;;24.29;60.50;99190.78;7314426;19;130576;-41
2023/08/05 07:23:27;;;;;;;28.23;1.93;;;;;;;24.36;60.85;99205.69;7316399;19;128833;-42
2023/08/05 07:25:52;;;;;;;25.97;1.90;;;;;;;24.31;60.59;99197.50;7313848;19;130027;-42
2023/08/05 07:28:17;;;;;;;30.57;2.37;;;;;;;24.36;60.67;99199.66;7314755;19;129114;-43
2023/08/05 07:30:43;;;;;;;35.90;2.27;;;;;;;24.37;60.96;99206.53;7312267;19;129054;-42
2023/08/05 07:33:09;;;;;;;39.20;2.53;;;;;;;24.36;60.21;99208.31;7315895;19;129164;-43
2023/08/05 07:35:36;;;;;;;53.58;3.50;;;;;;;24.37;60.96;99211.78;7316081;19;130350;-42
2023/08/05 07:38:04;;;;;;;37.95;2.55;;;;;;;24.27;61.01;99201.47;7312085;19;129179;-42
2023/08/05 07:40:31;;;;;;;26.25;1.88;;;;;;;24.33;61.06;99213.09;7311525;19;129346;-43
2023/08/05 07:42:58;;;;;;;29.10;1.98;;;;;;;24.34;60.63;99222.63;7314918;19;130846;-42
2023/08/05 07:45:24;;;;;;;36.90;2.33;;;;;;;24.33;60.37;99237.56;7315544;19;129577;-42
2023/08/05 07:47:51;;;;;;;19.13;1.47;;;;;;;24.24;61.03;99212.31;7315603;19;129505;-42
2023/08/05 07:50:21;;;;;;;29.48;2.03;;;;;;;24.33;60.75;99232.31;7311392;19;130101;-42
2023/08/05 07:52:47;;;;;;;15.77;1.33;;;;;;;24.35;60.88;99224.25;7315126;19;128824;-42
2023/08/05 07:55:12;;;;;;;28.53;1.97;;;;;;;24.35;60.69;99227.72;7315892;19;129804;-42
2023/08/05 07:57:40;;;;;;;34.87;2.37;;;;;;;24.32;60.70;99230.69;7312710;19;130623;-42
2023/08/05 08:00:08;;;;;;;26.50;1.67;;;;;;;24.33;60.82;99237.56;7313625;19;129276;-40
2023/08/05 08:02:34;;;;;;;25.63;1.83;;;;;;;24.33;60.98;99234.94;7314319;19;129000;-42
2023/08/05 08:05:04;;;;;;;35.30;2.30;;;;;;;24.25;60.53;99219.19;7316365;19;130142;-43
2023/08/05 08:07:29;;;;;;;25.20;1.73;;;;;;;24.33;60.63;99232.31;7313815;19;131238;-43
2023/08/05 08:09:55;;;;;;;22.10;1.63;;;;;;;24.35;61.04;99232.16;7312742;19;129370;-40
2023/08/05 08:12:20;;;;;;;35.50;2.47;;;;;;;24.36;60.47;99231.19;7314586;19;130598;-42
2023/08/05 08:14:46;;;;;;;29.13;2.00;;;;;;;24.34;60.67;99231.34;7309196;19;130570;-42
2023/08/05 08:17:11;;;;;;;38.80;2.77;;;;;;;24.35;60.29;99229.50;7313087;19;130823;-42
2023/08/05 08:19:36;;;;;;;26.47;1.80;;;;;;;24.34;60.72;99233.97;7312230;19;128980;-42
2023/08/05 08:22:02;;;;;;;36.67;2.53;;;;;;;24.34;60.71;99228.72;7313835;19;129333;-42
2023/08/05 08:24:27;;;;;;;22.37;1.50;;;;;;;24.34;61.05;99227.88;7314879;19;129124;-42
2023/08/05 08:26:52;;;;;;;25.23;1.87;;;;;;;24.34;60.40;99220.84;7310236;19;129882;-42
2023/08/05 08:29:18;;;;;;;54.43;3.53;;;;;;;24.34;60.43;99222.63;7311045;19;128857;-41
2023/08/05 08:31:43;;;;;;;35.70;2.37;;;;;;;24.35;60.98;99219.84;7314313;19;129172;-42
2023/08/05 08:34:08;;;;;;;37.67;2.50;;;;;;;24.35;60.73;99219.00;7312412;19;129729;-40
2023/08/05 08:36:34;;;;;;;23.43;1.87;;;;;;;24.34;60.26;99212.94;7313039;19;130347;-42
2023/08/05 08:38:59;;;;;;;41.23;2.63;;;;;;;24.34;61.03;99210.31;7312460;19;128770;-42
2023/08/05 08:41:25;;;;;;;47.33;3.33;;;;;;;24.33;61.07;99206.03;7300418;19;130093;-40
2023/08/05 08:43:51;;;;;;;63.28;4.32;;;;;;;24.31;60.49;99196.69;7299588;19;130227;-40
2023/08/05 08:46:19;;;;;;;32.97;2.30;;;;;;;24.33;60.75;99195.53;7314598;19;129675;-42
2023/08/05 08:48:48;;;;;;;16.88;1.48;;;;;;;24.33;61.00;99195.53;7306390;19;129725;-42
2023/08/05 08:51:15;;;;;;;37.10;2.55;;;;;;;24.35;60.49;99188.31;7311931;19;129243;-43
2023/08/05 08:53:42;;;;;;;31.33;2.08;;;;;;;24.28;61.00;99173.34;7309508;19;130615;-43
2023/08/05 08:56:07;;;;;;;40.63;2.70;;;;;;;24.36;61.05;99189.13;7311564;19;129165;-41
2023/08/05 08:58:33;;;;;;;36.63;2.40;;;;;;;24.36;61.16;99184.69;7312285;19;129121;-42
2023/08/05 09:00:58;;;;;;;36.47;2.43;;;;;;;24.35;60.35;99183.06;7310467;19;129670;-43
2023/08/05 09:03:25;;;;;;;24.30;1.50;;;;;;;24.35;60.38;99187.47;7312064;19;129505;-40
2023/08/05 09:05:56;;;;;;;68.32;4.35;;;;;;;24.34;61.53;99178.78;7311498;19;131557;-43
2023/08/05 09:08:21;;;;;;;84.80;5.53;;;;;;;24.34;60.43;99185.84;7308990;19;130687;-41
2023/08/05 09:10:47;;;;;;;44.10;2.73;;;;;;;24.35;61.17;99193.56;7311558;19;129216;-42
2023/08/05 09:13:16;;;;;;;32.67;2.13;;;;;;;24.26;60.67;99173.53;7312217;19;130162;-42
2023/08/05 09:15:41;;;;;;;28.33;1.92;;;;;;;24.33;61.13;99190.28;7312768;19;130346;-43
2023/08/05 09:18:08;;;;;;;36.73;2.33;;;;;;;24.32;60.44;99195.69;7313597;19;129179;-42
2023/08/05 09:20:35;;;;;;;26.83;1.75;;;;;;;24.33;60.51;99203.41;7310933;19;129758;-43
2023/08/05 09:23:02;;;;;;;33.08;2.22;;;;;;;24.31;61.02;99202.75;7312461;19;130667;-41
2023/08/05 09:25:29;;;;;;;24.13;1.63;;;;;;;24.31;60.77;99197.50;7313063;19;131312;-43
2023/08/05 09:27:56;;;;;;;22.83;1.67;;;;;;;24.33;60.99;99190.28;7312061;19;129141;-38
2023/08/05 09:30:23;;;;;;;34.88;2.13;;;;;;;24.32;60.56;99190.44;7309255;19;129555;-42
2023/08/05 09:32:48;;;;;;;30.05;2.03;;;;;;;24.33;60.98;99190.28;7310014;19;129234;-43
2023/08/05 09:35:15;;;;;;;39.80;2.50;;;;;;;24.35;61.08;99190.09;7311187;19;130241;-43
2023/08/05 09:37:51;;;;;;;40.60;2.42;;;;;;;24.33;60.74;99190.28;7311090;19;129417;-40
2023/08/05 09:40:24;;;;;;;32.97;2.10;;;;;;;24.33;61.16;99189.44;7310782;19;129049;-43
2023/08/05 09:42:51;;;;;;;73.25;4.50;;;;;;;24.32;60.57;99183.38;7310449;19;130625;-43
2023/08/05 09:45:18;;;;;;;29.70;1.98;;;;;;;24.33;60.46;99189.44;7312867;19;129519;-43
2023/08/05 09:47:47;;;;;;;;;;;;;;;24.40;61.39;99180.75;7312519;19;130682;-42
2023/08/05 09:50:14;;;;;;;36.63;2.47;;;;;;;24.33;60.26;99185.03;7310794;19;130471;-43
2023/08/05 09:52:43;;;;;;;;;;;;;;;24.40;61.38;99188.63;7306784;19;130225;-41
2023/08/05 09:55:13;;;;;;;33.95;2.08;;;;;;;24.33;61.40;99192.91;7311582;19;130527;-43
2023/08/05 09:57:42;;;;;;;12.85;1.13;;;;;;;24.30;60.82;99195.88;7308371;19;129136;-43
2023/08/05 10:00:12;;;;;;;32.03;2.15;;;;;;;24.31;61.25;99194.06;7310665;19;129673;-41
2023/08/05 10:02:45;;;;;;;32.67;2.20;;;;;;;24.22;61.84;99176.66;7310720;19;129175;-42
2023/08/05 10:05:12;;;;;;;42.92;2.92;;;;;;;24.30;60.56;99182.72;7310624;19;130176;-42
2023/08/05 10:07:40;;;;;;;25.77;1.80;;;;;;;24.30;61.02;99180.09;7315087;19;129038;-41
2023/08/05 10:10:16;;;;;;;19.05;1.40;;;;;;;24.31;61.63;99181.72;7315733;19;129164;-40
2023/08/05 10:12:51;;;;;;;27.33;2.03;;;;;;;24.31;62.09;99181.72;7317599;19;130262;-43
2023/08/05 10:15:32;;;;;;;35.20;2.40;;;;;;;24.32;61.54;99170.25;7318039;19;130330;-43
2023/08/05 10:17:57;;;;;;;12.18;1.08;;;;;;;24.31;61.14;99175.69;7317479;19;128845;-42
2023/08/05 10:20:23;;;;;;;27.13;1.73;;;;;;;24.30;60.56;99174.84;7315842;19;128979;-42
2023/08/05 10:23:10;;;;;;;34.57;2.23;;;;;;;24.32;61.25;99175.50;7316499;19;130069;-42
2023/08/05 10:25:43;;;;;;;26.52;1.77;;;;;;;24.32;61.64;99172.06;7317231;19;132118;-41
2023/08/05 10:28:30;;;;;;;42.75;2.85;;;;;;;24.29;61.22;99167.97;7316036;19;129111;-42
2023/08/05 10:30:56;;;;;;;23.07;1.53;;;;;;;24.31;60.43;99171.22;7314602;19;129163;-42
2023/08/05 10:33:22;;;;;;;39.13;2.63;;;;;;;24.33;61.09;99168.44;7314699;19;130218;-43
2023/08/05 10:35:49;;;;;;;87.80;5.67;;;;;;;24.33;61.22;99163.16;7301428;19;129681;-41
2023/08/05 10:38:21;;;;;;;103.80;6.45;;;;;;;24.32;60.62;99162.38;7301235;19;131250;-40
2023/08/05 10:41:03;;;;;;;45.45;2.95;;;;;;;24.34;61.45;99170.91;7311465;19;128869;-38
2023/08/05 10:43:31;;;;;;;26.85;1.75;;;;;;;24.35;61.52;99156.78;7317253;19;130316;-41
2023/08/05 10:45:58;;;;;;;52.90;3.33;;;;;;;24.35;60.87;99162.03;7316510;19;130230;-42
2023/08/05 10:48:33;;;;;;;92.32;5.80;;;;;;;24.35;61.09;99151.53;7314993;19;129467;-41
2023/08/05 10:51:06;;;;;;;36.20;2.45;;;;;;;24.34;61.23;99147.25;7314822;19;129157;-40
2023/08/05 10:53:32;;;;;;;41.47;2.80;;;;;;;24.34;60.77;99149.88;7314777;19;130642;-43
2023/08/05 10:55:57;;;;;;;30.63;2.03;;;;;;;24.35;60.50;99146.25;7316733;19;130307;-41
2023/08/05 10:58:30;;;;;;;56.30;3.67;;;;;;;24.34;61.42;99144.63;7315895;19;131095;-43
2023/08/05 11:01:05;;;;;;;30.10;2.08;;;;;;;24.32;61.63;99136.09;7313838;19;129103;-40
2023/08/05 11:03:36;;;;;;;27.52;1.67;;;;;;;24.33;61.26;99131.63;7315439;19;129210;-43
2023/08/05 11:06:03;;;;;;;47.42;3.03;;;;;;;24.32;60.50;99136.09;7316148;19;130906;-42
2023/08/05 11:08:30;;;;;;;48.60;3.38;;;;;;;24.33;60.91;99124.59;7315290;19;131062;-43
2023/08/05 11:10:57;;;;;;;;;;;;;;;24.41;61.61;99124.56;7312454;19;129791;-43
2023/08/05 11:13:23;;;;;;;33.63;2.20;;;;;;;24.34;61.15;99123.63;7316209;19;129111;-41
2023/08/05 11:16:09;;;;;;;33.10;2.23;;;;;;;24.36;61.11;99120.81;7315272;19;129256;-43